Time;durP1;ratioP1;P1;durP2;ratioP2;P2;SDS_P1;SDS_P2;PMS_P1;PMS_P2;Temp;Humidity;BMP_temperature;BMP_pressure;BME280_temperature;BME280_humidity;BME280_pressure;Samples;Min_cycle;Max_cycle;Signal;HPM_P1;HPM_P2
2022/06/11 00:01:23;;;;;;;17.15;10.13;;;;;;;17.45;100.00;101955.50;5072320;28;20514;-48
2022/06/11 00:03:54;;;;;;;15.27;9.90;;;;;;;17.44;100.00;101955.59;5072070;28;20063;-57
2022/06/11 00:06:25;;;;;;;16.23;9.65;;;;;;;17.36;100.00;101951.72;5070166;28;20044;-49
2022/06/11 00:08:53;;;;;;;16.35;10.25;;;;;;;17.33;100.00;101967.03;5070776;28;20045;-48
2022/06/11 00:11:22;;;;;;;18.75;10.15;;;;;;;17.29;100.00;101966.44;5072086;28;20503;-57
2022/06/11 00:13:51;;;;;;;16.50;9.40;;;;;;;17.30;100.00;101960.19;5071691;28;20049;-48
2022/06/11 00:16:22;;;;;;;17.55;9.48;;;;;;;17.29;100.00;101960.28;5072560;28;20056;-47
2022/06/11 00:18:54;;;;;;;14.27;9.05;;;;;;;17.25;100.00;101967.66;5072327;28;20045;-50
2022/06/11 00:21:24;;;;;;;14.82;9.60;;;;;;;17.20;100.00;101959.16;5072243;28;20098;-50
2022/06/11 00:23:53;;;;;;;14.05;8.27;;;;;;;17.18;100.00;101963.78;5069602;28;20063;-48
2022/06/11 00:26:22;;;;;;;13.23;7.97;;;;;;;17.15;100.00;101954.22;5070029;28;20075;-50
2022/06/11 00:28:50;;;;;;;15.40;8.63;;;;;;;17.12;100.00;101954.44;5072243;28;20574;-49
2022/06/11 00:31:18;;;;;;;11.18;7.95;;;;;;;17.01;100.00;101952.56;5060341;28;20533;-50
2022/06/11 00:33:46;;;;;;;12.73;8.73;;;;;;;17.02;100.00;101959.59;5071415;28;20076;-49
2022/06/11 00:36:14;;;;;;;11.85;8.15;;;;;;;16.96;100.00;101956.53;5071255;28;20146;-57
2022/06/11 00:38:44;;;;;;;11.68;7.75;;;;;;;16.92;100.00;101955.94;5071675;28;20114;-56
2022/06/11 00:41:12;;;;;;;13.18;8.38;;;;;;;16.87;100.00;101950.09;5071153;28;20070;-57
2022/06/11 00:43:42;;;;;;;12.88;8.48;;;;;;;16.80;100.00;101962.13;5067564;28;20060;-57
2022/06/11 00:46:40;;;;;;;14.13;8.65;;;;;;;16.70;100.00;101957.50;5069862;28;20044;-58
2022/06/11 00:49:15;;;;;;;12.70;7.70;;;;;;;16.71;100.00;101955.69;5071393;28;20434;-57
2022/06/11 00:51:43;;;;;;;10.38;7.25;;;;;;;16.58;100.00;101954.88;5071513;28;20066;-53
2022/06/11 00:54:17;;;;;;;15.30;7.00;;;;;;;16.52;100.00;101948.22;5071737;28;20055;-51
2022/06/11 00:56:49;;;;;;;12.10;6.72;;;;;;;16.55;100.00;101947.97;5069800;28;20537;-50
2022/06/11 00:59:22;;;;;;;9.93;6.25;;;;;;;16.44;100.00;101950.59;5069326;28;20052;-52
2022/06/11 01:01:50;;;;;;;10.68;5.70;;;;;;;16.44;100.00;101939.97;5065435;28;20039;-52
2022/06/11 01:04:44;;;;;;;10.30;5.15;;;;;;;16.50;100.00;101947.50;5071066;28;20090;-48
2022/06/11 01:07:26;;;;;;;10.50;5.30;;;;;;;16.41;100.00;101946.34;5071873;28;20488;-56
2022/06/11 01:10:20;;;;;;;10.17;5.17;;;;;;;16.38;100.00;101941.25;5068995;28;20044;-57
2022/06/11 01:12:57;;;;;;;8.60;4.85;;;;;;;16.35;100.00;101944.97;5068236;28;20469;-57
2022/06/11 01:15:31;;;;;;;10.77;4.68;;;;;;;16.34;100.00;101940.63;5071224;28;20044;-57
2022/06/11 01:18:10;;;;;;;9.57;4.60;;;;;;;16.26;100.00;101943.00;5066815;28;20047;-57
2022/06/11 01:20:47;;;;;;;8.93;4.30;;;;;;;16.22;100.00;101945.03;5068898;28;20044;-57
2022/06/11 01:23:51;;;;;;;11.60;5.00;;;;;;;16.19;100.00;101949.69;5067279;28;20507;-57
2022/06/11 01:26:42;;;;;;;10.63;5.18;;;;;;;16.10;100.00;101940.59;5042259;28;20141;-58
2022/06/11 01:29:39;;;;;;;11.02;5.30;;;;;;;16.08;100.00;101939.84;5070784;28;20075;-58
2022/06/11 01:32:14;;;;;;;10.48;4.63;;;;;;;16.04;100.00;101951.63;5071200;28;20060;-57
2022/06/11 01:34:52;;;;;;;8.98;5.13;;;;;;;16.02;100.00;101942.94;5077111;28;20571;-48
2022/06/11 01:37:27;;;;;;;12.95;5.68;;;;;;;15.94;100.00;101942.63;5070091;28;20098;-51
2022/06/11 01:40:00;;;;;;;13.32;5.80;;;;;;;15.88;100.00;101947.44;5070705;28;20499;-57
2022/06/11 01:42:34;;;;;;;10.30;4.82;;;;;;;15.83;100.00;101938.94;5068098;28;20055;-57
2022/06/11 01:45:14;;;;;;;8.63;5.00;;;;;;;15.77;100.00;101941.97;5069363;28;20078;-58
2022/06/11 01:47:43;;;;;;;9.88;5.20;;;;;;;15.75;100.00;101940.38;5070153;28;20036;-47
2022/06/11 01:50:15;;;;;;;8.98;5.20;;;;;;;15.69;100.00;101941.66;5068284;28;20036;-48
2022/06/11 01:53:01;;;;;;;11.30;5.47;;;;;;;15.65;100.00;101940.19;5084227;28;20044;-47
2022/06/11 01:55:48;;;;;;;12.98;5.68;;;;;;;15.60;100.00;101932.56;5068549;28;20476;-57
2022/06/11 01:58:30;;;;;;;15.18;6.68;;;;;;;15.61;100.00;101928.97;5067400;28;20052;-57
2022/06/11 02:01:09;;;;;;;12.07;6.25;;;;;;;15.54;100.00;101932.97;5065643;28;20125;-57
2022/06/11 02:03:47;;;;;;;10.02;5.50;;;;;;;15.55;100.00;101929.38;5070532;28;20048;-57
2022/06/11 02:06:24;;;;;;;9.18;5.82;;;;;;;15.52;100.00;101941.03;5070645;28;20036;-56
2022/06/11 02:09:03;;;;;;;9.85;5.18;;;;;;;15.49;100.00;101940.41;5065231;28;20055;-57
2022/06/11 02:11:36;;;;;;;12.60;6.55;;;;;;;15.41;100.00;101938.28;5067688;28;20127;-57
2022/06/11 02:14:12;;;;;;;9.65;5.30;;;;;;;15.34;100.00;101937.84;5070684;28;20048;-50
2022/06/11 02:16:45;;;;;;;12.10;5.90;;;;;;;15.32;100.00;101929.13;5071112;28;20044;-52
2022/06/11 02:19:17;;;;;;;10.70;6.20;;;;;;;15.33;100.00;101941.44;5068442;28;20537;-47
2022/06/11 02:21:52;;;;;;;11.27;6.88;;;;;;;15.24;100.00;101941.22;5067428;28;20055;-52
2022/06/11 02:24:26;;;;;;;10.57;6.45;;;;;;;15.25;100.00;101937.63;5068242;28;20553;-50
2022/06/11 02:26:57;;;;;;;11.63;5.38;;;;;;;15.22;100.00;101933.38;5066594;28;20041;-52
2022/06/11 02:29:26;;;;;;;10.95;5.80;;;;;;;15.21;100.00;101940.50;5069764;28;20063;-50
2022/06/11 02:31:58;;;;;;;11.45;5.65;;;;;;;15.16;100.00;101936.44;5070988;28;20040;-52
2022/06/11 02:34:27;;;;;;;10.27;5.40;;;;;;;15.10;100.00;101936.84;5072290;28;20075;-48
2022/06/11 02:37:01;;;;;;;11.05;5.53;;;;;;;15.07;100.00;101935.25;5074040;28;20493;-48
2022/06/11 02:39:32;;;;;;;10.23;5.50;;;;;;;15.06;100.00;101930.06;5070996;28;21006;-48
2022/06/11 02:42:01;;;;;;;9.52;5.55;;;;;;;15.02;100.00;101943.53;5070361;28;20462;-51
2022/06/11 02:44:29;;;;;;;12.25;5.32;;;;;;;15.03;100.00;101953.16;5071511;28;20119;-53
2022/06/11 02:46:58;;;;;;;8.45;4.93;;;;;;;15.00;100.00;101948.06;5069942;28;20052;-56
2022/06/11 02:49:29;;;;;;;9.15;5.13;;;;;;;15.01;100.00;101947.13;5070279;28;20052;-56
2022/06/11 02:52:00;;;;;;;14.73;6.22;;;;;;;14.96;100.00;101946.56;5071388;28;20071;-56
2022/06/11 02:54:28;;;;;;;10.40;6.15;;;;;;;14.96;100.00;101953.69;5069321;28;20056;-56
2022/06/11 02:57:00;;;;;;;9.80;5.50;;;;;;;14.91;100.00;101953.13;5071502;28;20091;-56
2022/06/11 02:59:28;;;;;;;12.20;5.93;;;;;;;14.86;100.00;101948.13;5074049;28;20055;-51
2022/06/11 03:01:58;;;;;;;9.38;5.63;;;;;;;14.89;100.00;101953.22;5073964;28;20511;-53
2022/06/11 03:04:29;;;;;;;12.20;5.28;;;;;;;14.86;100.00;101948.13;5066823;28;20491;-53
2022/06/11 03:06:57;;;;;;;12.05;5.97;;;;;;;14.82;100.00;101950.13;5063677;28;20052;-52
2022/06/11 03:09:29;;;;;;;11.63;5.75;;;;;;;14.82;100.00;101954.56;5070032;28;20071;-52
2022/06/11 03:11:57;;;;;;;10.38;5.57;;;;;;;14.74;100.00;101959.50;5071800;28;20052;-51
2022/06/11 03:14:25;;;;;;;11.20;6.38;;;;;;;14.75;100.00;101961.22;5068460;28;20068;-48
2022/06/11 03:16:53;;;;;;;10.98;5.50;;;;;;;14.76;100.00;101952.34;5073113;28;20115;-52
2022/06/11 03:19:23;;;;;;;10.27;6.05;;;;;;;14.72;100.00;101972.84;5070505;28;20055;-52
2022/06/11 03:21:54;;;;;;;9.88;5.78;;;;;;;14.63;100.00;101974.31;5072612;28;20136;-52
2022/06/11 03:24:23;;;;;;;9.35;5.40;;;;;;;14.65;100.00;101979.50;5070057;28;20048;-52
2022/06/11 03:26:51;;;;;;;13.13;5.80;;;;;;;14.67;100.00;101969.66;5069847;28;20158;-51
2022/06/11 03:29:21;;;;;;;8.90;5.43;;;;;;;14.66;100.00;101968.81;5071226;28;20063;-49
2022/06/11 03:31:49;;;;;;;11.85;6.30;;;;;;;14.66;100.00;101976.75;5063472;28;20052;-51
2022/06/11 03:34:18;;;;;;;10.32;6.03;;;;;;;14.68;100.00;101980.16;5068257;28;20045;-51
2022/06/11 03:36:52;;;;;;;9.65;5.88;;;;;;;14.67;100.00;101975.81;5062522;28;20041;-52
2022/06/11 03:39:21;;;;;;;9.15;5.78;;;;;;;14.66;100.00;101979.41;5059330;28;20126;-47
2022/06/11 03:41:50;;;;;;;10.02;5.80;;;;;;;14.67;100.00;101983.75;5066189;28;20037;-51
2022/06/11 03:44:18;;;;;;;11.75;5.60;;;;;;;14.68;100.00;101987.25;5072712;28;20384;-55
2022/06/11 03:46:46;;;;;;;8.65;5.15;;;;;;;14.69;100.00;101981.84;5070565;28;20058;-54
2022/06/11 03:49:15;;;;;;;10.07;5.65;;;;;;;14.68;100.00;101987.25;5072922;28;20041;-49
2022/06/11 03:51:44;;;;;;;11.60;5.50;;;;;;;14.69;100.00;101981.84;5068961;28;20040;-49
2022/06/11 03:54:14;;;;;;;11.93;6.10;;;;;;;14.70;100.00;101980.91;5071801;28;20102;-47
2022/06/11 03:56:43;;;;;;;11.90;6.05;;;;;;;14.74;100.00;101991.28;5070108;28;20546;-51
2022/06/11 03:59:12;;;;;;;8.05;5.35;;;;;;;14.74;100.00;101986.00;5072624;28;20130;-50
2022/06/11 04:01:40;;;;;;;9.20;5.28;;;;;;;14.77;100.00;102002.53;5071010;28;20049;-48
2022/06/11 04:04:11;;;;;;;8.95;5.20;;;;;;;14.78;100.00;101998.06;5072840;28;20112;-52
2022/06/11 04:06:44;;;;;;;11.82;5.70;;;;;;;14.77;100.00;101999.88;5072618;28;20048;-51
2022/06/11 04:09:17;;;;;;;8.75;5.15;;;;;;;14.81;100.00;102003.19;5064547;28;20049;-56
2022/06/11 04:11:45;;;;;;;9.60;5.60;;;;;;;14.80;100.00;102002.34;5069778;28;20306;-54
2022/06/11 04:14:13;;;;;;;10.23;5.05;;;;;;;14.81;100.00;102009.34;5069086;28;20056;-52
2022/06/11 04:16:44;;;;;;;10.90;5.32;;;;;;;14.80;100.00;102007.63;5068541;28;20036;-52
2022/06/11 04:19:16;;;;;;;12.65;5.00;;;;;;;14.81;100.00;102013.78;5070409;28;20045;-57
2022/06/11 04:21:46;;;;;;;10.43;5.10;;;;;;;14.84;100.00;102018.88;5072122;28;20044;-54
2022/06/11 04:24:16;;;;;;;10.57;4.80;;;;;;;14.86;100.00;102016.97;5071945;28;20381;-51
2022/06/11 04:26:48;;;;;;;10.48;5.32;;;;;;;14.87;100.00;102018.69;5071644;28;20507;-51
2022/06/11 04:29:20;;;;;;;10.43;4.97;;;;;;;14.89;100.00;102027.38;5069269;28;20048;-53
2022/06/11 04:31:51;;;;;;;11.68;4.88;;;;;;;14.90;100.00;102026.41;5067241;28;20040;-50
2022/06/11 04:34:19;;;;;;;10.05;4.82;;;;;;;14.91;100.00;102028.13;5071573;28;20059;-51
2022/06/11 04:36:48;;;;;;;10.10;4.53;;;;;;;14.95;100.00;102032.28;5069364;28;20040;-49
2022/06/11 04:39:21;;;;;;;14.73;4.57;;;;;;;14.97;100.00;102030.38;5072053;28;20530;-49
2022/06/11 04:41:49;;;;;;;10.82;4.57;;;;;;;15.00;100.00;102038.13;5069037;28;20044;-53
2022/06/11 04:44:18;;;;;;;11.07;3.92;;;;;;;15.06;100.00;102038.69;5072093;28;20463;-50
2022/06/11 04:46:47;;;;;;;9.00;3.72;;;;;;;15.03;100.00;102032.63;5071626;28;20042;-50
2022/06/11 04:49:16;;;;;;;8.38;3.88;;;;;;;15.07;100.00;102041.22;5069107;28;20041;-50
2022/06/11 04:51:45;;;;;;;11.55;4.15;;;;;;;15.08;100.00;102047.38;5071952;28;20048;-51
2022/06/11 04:54:14;;;;;;;10.65;4.10;;;;;;;15.09;100.00;102049.91;5070861;28;20068;-55
2022/06/11 04:56:43;;;;;;;10.70;3.97;;;;;;;15.17;100.00;102057.38;5070239;28;20040;-54
2022/06/11 04:59:11;;;;;;;9.68;3.67;;;;;;;15.17;100.00;102057.38;5071464;28;20101;-55
2022/06/11 05:01:40;;;;;;;11.18;3.67;;;;;;;15.23;100.00;102061.41;5071545;28;20056;-54
2022/06/11 05:04:08;;;;;;;9.20;3.28;;;;;;;15.25;100.00;102065.66;5071319;28;20499;-55
2022/06/11 05:06:39;;;;;;;14.27;3.53;;;;;;;15.29;100.00;102056.56;5071560;28;20041;-54
2022/06/11 05:09:08;;;;;;;11.98;3.83;;;;;;;15.36;100.00;102049.88;5071682;28;20048;-55
2022/06/11 05:11:37;;;;;;;10.00;3.35;;;;;;;15.46;100.00;102049.28;5068947;28;20533;-54
2022/06/11 05:14:07;;;;;;;10.88;3.28;;;;;;;15.51;100.00;102055.13;5067195;28;20497;-55
2022/06/11 05:16:36;;;;;;;9.48;3.17;;;;;;;15.56;100.00;102055.69;5066078;28;20044;-56
2022/06/11 05:19:05;;;;;;;12.70;3.50;;;;;;;15.61;100.00;102061.53;5071313;28;20043;-55
2022/06/11 05:21:33;;;;;;;10.52;3.20;;;;;;;15.67;100.00;102053.16;5065047;28;20052;-56
2022/06/11 05:24:01;;;;;;;11.38;2.88;;;;;;;15.79;100.00;102058.56;5065499;28;20121;-54
2022/06/11 05:26:34;;;;;;;10.70;3.15;;;;;;;15.88;100.00;102060.63;5071392;28;20044;-56
2022/06/11 05:29:02;;;;;;;8.48;2.67;;;;;;;16.04;100.00;102066.56;5068821;28;20063;-55
2022/06/11 05:31:31;;;;;;;8.77;3.17;;;;;;;16.04;100.00;102069.22;5066635;28;20036;-57
2022/06/11 05:34:00;;;;;;;10.93;3.22;;;;;;;16.12;100.00;102066.03;5066083;28;20056;-56
2022/06/11 05:36:28;;;;;;;11.20;2.80;;;;;;;16.20;100.00;102066.34;5061660;28;20072;-56
2022/06/11 05:38:56;;;;;;;15.48;2.80;;;;;;;16.22;100.00;102066.25;5070935;28;20044;-54
2022/06/11 05:41:24;;;;;;;11.90;2.88;;;;;;;16.27;100.00;102066.78;5070990;28;20056;-56
2022/06/11 05:43:52;;;;;;;16.83;3.20;;;;;;;16.29;100.00;102067.53;5064931;28;20617;-56
2022/06/11 05:46:26;;;;;;;15.60;3.00;;;;;;;16.34;100.00;102073.34;5066687;28;20106;-56
2022/06/11 05:48:59;;;;;;;11.23;3.03;;;;;;;16.40;100.00;102072.06;5070763;28;20148;-57
2022/06/11 05:51:31;;;;;;;;;;;;;;;16.51;100.00;102077.47;5070961;28;20063;-55
2022/06/11 05:54:02;;;;;;;12.63;2.57;;;;;;;16.58;100.00;102072.59;5062516;28;19924;-51
2022/06/11 05:56:31;;;;;;;14.02;2.88;;;;;;;16.66;100.00;102080.00;5069347;28;20395;-50
2022/06/11 05:59:02;;;;;;;13.23;2.67;;;;;;;16.78;100.00;102075.63;5071047;28;20507;-51
2022/06/11 06:01:34;;;;;;;14.75;3.00;;;;;;;16.88;100.00;102071.34;5065100;28;20041;-52
2022/06/11 06:04:04;;;;;;;12.97;3.80;;;;;;;16.95;100.00;102080.59;5067581;28;20377;-52
2022/06/11 06:06:32;;;;;;;12.25;2.72;;;;;;;17.02;99.18;102081.81;5068974;28;20048;-50
2022/06/11 06:09:00;;;;;;;14.13;2.92;;;;;;;17.17;97.74;102087.00;5074009;28;20400;-54
2022/06/11 06:11:28;;;;;;;12.35;3.17;;;;;;;17.24;97.09;102082.91;5072360;28;20053;-53
2022/06/11 06:13:56;;;;;;;11.15;2.83;;;;;;;17.30;97.16;102085.13;5073537;28;20040;-52
2022/06/11 06:16:26;;;;;;;14.52;3.05;;;;;;;17.33;95.28;102090.22;5073646;28;20041;-50
2022/06/11 06:18:56;;;;;;;13.10;3.10;;;;;;;17.46;94.69;102078.66;5074055;28;20056;-60
2022/06/11 06:21:28;;;;;;;13.45;3.17;;;;;;;17.64;93.55;102084.41;5067398;28;20047;-56
2022/06/11 06:23:57;;;;;;;13.38;3.42;;;;;;;17.71;92.94;102086.47;5073696;28;20049;-58
2022/06/11 06:26:25;;;;;;;16.73;3.22;;;;;;;17.87;94.65;102082.63;5067897;28;20056;-50
2022/06/11 06:28:53;;;;;;;16.67;3.38;;;;;;;17.98;94.46;102088.00;5069700;28;20064;-52
2022/06/11 06:31:21;;;;;;;12.15;3.08;;;;;;;18.12;94.31;102092.28;5071422;28;20057;-53
2022/06/11 06:33:50;;;;;;;14.25;3.03;;;;;;;18.26;92.58;102091.22;5069168;28;20053;-58
2022/06/11 06:36:19;;;;;;;15.95;2.90;;;;;;;18.39;92.43;102094.59;5066364;28;20049;-58
2022/06/11 06:38:50;;;;;;;14.38;3.20;;;;;;;18.41;89.97;102091.81;5073201;28;20772;-52
2022/06/11 06:41:18;;;;;;;13.48;3.28;;;;;;;18.53;89.33;102092.66;5068902;28;20048;-49
2022/06/11 06:43:48;;;;;;;15.05;3.08;;;;;;;18.60;87.60;102091.19;5070520;28;20033;-58
2022/06/11 06:46:17;;;;;;;15.30;3.17;;;;;;;18.72;88.82;102100.03;5067753;28;20045;-58
2022/06/11 06:48:46;;;;;;;15.68;4.13;;;;;;;18.82;86.49;102100.97;5073196;28;20067;-58
2022/06/11 06:51:14;;;;;;;12.18;2.85;;;;;;;18.94;86.36;102098.31;5073476;28;20060;-59
2022/06/11 06:53:44;;;;;;;14.32;3.30;;;;;;;19.08;86.24;102106.88;5072519;28;20066;-58
2022/06/11 06:56:14;;;;;;;15.32;2.80;;;;;;;19.28;86.40;102106.22;5070648;28;20051;-58
2022/06/11 06:58:42;;;;;;;11.85;2.47;;;;;;;19.39;84.38;102106.19;5071890;28;20065;-52
2022/06/11 07:01:10;;;;;;;14.52;3.25;;;;;;;19.43;83.96;102100.47;5072250;28;20127;-58
2022/06/11 07:03:41;;;;;;;15.57;2.97;;;;;;;19.51;83.31;102102.50;5073513;28;20051;-58
2022/06/11 07:06:09;;;;;;;16.85;3.72;;;;;;;19.67;83.83;102106.56;5073678;28;20040;-58
2022/06/11 07:08:37;;;;;;;13.80;2.92;;;;;;;19.77;82.19;102096.81;5074077;28;20045;-49
2022/06/11 07:11:05;;;;;;;15.15;3.13;;;;;;;19.96;81.44;102104.13;5073440;28;20165;-58
2022/06/11 07:13:35;;;;;;;13.07;3.00;;;;;;;20.09;81.84;102102.06;5073653;28;20051;-51
2022/06/11 07:16:11;;;;;;;13.05;3.17;;;;;;;20.24;80.12;102097.22;5073547;28;20059;-59
2022/06/11 07:18:42;;;;;;;14.68;3.28;;;;;;;20.42;77.98;102096.59;5071300;28;20059;-53
2022/06/11 07:21:17;;;;;;;15.23;3.03;;;;;;;20.53;78.84;102091.19;5073848;28;21115;-49
2022/06/11 07:23:50;;;;;;;14.68;3.10;;;;;;;20.60;74.74;102096.81;5071430;28;20117;-49
2022/06/11 07:26:23;;;;;;;13.50;3.22;;;;;;;20.75;76.49;102098.16;5070340;28;20063;-58
2022/06/11 07:28:56;;;;;;;15.00;2.90;;;;;;;20.84;75.34;102101.00;5069409;28;20051;-58
2022/06/11 07:31:24;;;;;;;15.23;3.35;;;;;;;21.04;74.12;102100.06;5069895;28;20059;-58
2022/06/11 07:33:52;;;;;;;19.15;3.60;;;;;;;21.13;73.31;102094.84;5071926;28;20060;-57
2022/06/11 07:36:21;;;;;;;15.82;2.90;;;;;;;21.26;74.87;102095.44;5070120;28;20048;-58
2022/06/11 07:38:49;;;;;;;15.48;3.38;;;;;;;21.51;74.02;102090.50;5071684;28;20127;-58
2022/06/11 07:41:17;;;;;;;17.88;3.55;;;;;;;21.63;72.25;102093.91;5073225;28;20036;-57
2022/06/11 07:43:45;;;;;;;15.57;3.10;;;;;;;21.80;71.70;102100.34;5073102;28;20412;-52
2022/06/11 07:46:14;;;;;;;14.98;3.05;;;;;;;21.90;69.72;102087.78;5073102;28;20076;-58
2022/06/11 07:48:43;;;;;;;16.52;3.08;;;;;;;21.99;69.61;102089.63;5070694;28;20044;-55
2022/06/11 07:51:11;;;;;;;16.45;3.63;;;;;;;21.97;70.57;102094.25;5072319;28;20044;-57
2022/06/11 07:53:39;;;;;;;17.00;3.92;;;;;;;22.28;71.01;102088.66;5073695;28;20059;-57
2022/06/11 07:56:07;;;;;;;11.77;2.90;;;;;;;22.32;67.64;102092.75;5073453;28;20143;-58
2022/06/11 07:58:35;;;;;;;18.02;3.22;;;;;;;22.38;66.19;102102.88;5073576;28;20068;-56
2022/06/11 08:01:05;;;;;;;14.15;3.15;;;;;;;22.52;65.14;102106.06;5073398;28;20511;-58
2022/06/11 08:03:37;;;;;;;15.60;3.63;;;;;;;22.61;66.82;102106.03;5071381;28;20472;-50
2022/06/11 08:06:08;;;;;;;16.85;3.17;;;;;;;22.61;64.91;102107.88;5070186;28;20106;-47
2022/06/11 08:08:36;;;;;;;15.85;3.70;;;;;;;22.73;64.64;102105.84;5069460;28;20048;-58
2022/06/11 08:11:06;;;;;;;14.48;3.08;;;;;;;22.89;65.85;102102.47;5073217;28;20039;-57
2022/06/11 08:13:35;;;;;;;16.90;3.00;;;;;;;23.18;66.10;102112.19;5073498;28;20531;-58
2022/06/11 08:16:03;;;;;;;16.30;3.28;;;;;;;23.09;62.99;102101.34;5073243;28;20099;-57
2022/06/11 08:18:32;;;;;;;14.38;3.30;;;;;;;23.17;60.83;102105.16;5070804;28;20408;-57
2022/06/11 08:21:02;;;;;;;13.63;3.20;;;;;;;23.06;62.36;102098.97;5069625;28;20119;-57
2022/06/11 08:23:31;;;;;;;12.07;2.47;;;;;;;23.35;58.88;102105.16;5072807;28;20121;-57
2022/06/11 08:25:59;;;;;;;13.45;3.10;;;;;;;23.43;57.17;102099.84;5072492;28;20045;-48
2022/06/11 08:28:27;;;;;;;15.85;3.13;;;;;;;23.40;57.01;102106.38;5072809;28;20048;-47
2022/06/11 08:30:55;;;;;;;10.98;2.83;;;;;;;23.73;56.38;102103.94;5069494;28;20102;-46
2022/06/11 08:33:23;;;;;;;11.55;2.65;;;;;;;23.96;55.21;102103.47;5068338;28;20177;-50
2022/06/11 08:35:51;;;;;;;14.45;2.83;;;;;;;24.06;53.39;102103.34;5071781;28;20127;-45
2022/06/11 08:38:21;;;;;;;11.93;2.90;;;;;;;23.90;53.86;102112.16;5072680;28;20045;-49
2022/06/11 08:40:53;;;;;;;12.43;3.03;;;;;;;23.93;53.76;102110.00;5073066;28;20401;-50
2022/06/11 08:43:24;;;;;;;;;;;;;;;24.21;54.38;102101.75;5073254;28;20044;-45
2022/06/11 08:45:55;;;;;;;13.70;2.83;;;;;;;24.27;53.25;102108.38;5072648;28;19928;-51
2022/06/11 08:48:33;;;;;;;8.43;1.95;;;;;;;24.18;50.48;102114.69;5072809;28;20102;-48
2022/06/11 08:51:12;;;;;;;13.88;2.63;;;;;;;24.12;49.22;102111.63;5072435;28;20052;-50
2022/06/11 08:53:41;;;;;;;12.63;2.80;;;;;;;24.33;51.04;102110.38;5072528;28;20062;-52
2022/06/11 08:56:19;;;;;;;11.60;2.60;;;;;;;24.72;49.42;102109.91;5072677;28;20066;-49
2022/06/11 08:59:14;;;;;;;12.63;2.58;;;;;;;24.55;45.98;102119.72;5072019;28;20048;-48
2022/06/11 09:01:53;;;;;;;12.27;3.08;;;;;;;24.70;46.38;102113.78;5071587;28;20056;-52
2022/06/11 09:04:56;;;;;;;15.52;2.53;;;;;;;24.96;48.04;102110.97;5070898;28;20428;-53
2022/06/11 09:07:37;;;;;;;9.23;2.40;;;;;;;25.37;49.67;102113.75;5068710;28;20060;-53
2022/06/11 09:10:24;;;;;;;11.00;2.42;;;;;;;25.51;48.04;102106.88;5071564;28;20055;-50
2022/06/11 09:13:10;;;;;;;11.23;2.85;;;;;;;25.49;46.76;102108.88;5071859;28;20037;-58
2022/06/11 09:15:49;;;;;;;11.93;2.60;;;;;;;25.17;45.84;102115.91;5067025;28;20047;-54
2022/06/11 09:18:34;;;;;;;11.45;2.78;;;;;;;25.42;47.18;102113.28;5071593;28;20044;-54
2022/06/11 09:21:12;;;;;;;14.23;2.50;;;;;;;25.72;47.92;102105.50;5070379;28;20135;-53
2022/06/11 09:24:31;;;;;;;12.20;2.90;;;;;;;25.64;47.71;102122.50;5071576;28;20040;-58
2022/06/11 09:27:05;;;;;;;13.32;2.92;;;;;;;25.85;48.47;102119.31;4990835;28;20532;-58
2022/06/11 09:29:43;;;;;;;14.15;2.95;;;;;;;26.08;48.23;102110.53;5049873;28;20508;-54
2022/06/11 09:32:14;;;;;;;14.02;3.30;;;;;;;25.86;48.13;102117.44;5071686;28;20056;-54
2022/06/11 09:34:49;;;;;;;12.20;3.15;;;;;;;26.01;48.26;102114.91;5071067;28;20507;-58
2022/06/11 09:37:21;;;;;;;14.30;2.80;;;;;;;26.30;48.24;102117.88;5070706;28;20052;-59
2022/06/11 09:39:58;;;;;;;15.48;3.30;;;;;;;26.42;45.98;102118.34;5070671;28;20040;-53
2022/06/11 09:42:56;;;;;;;16.55;2.83;;;;;;;26.48;47.14;102122.19;5071555;28;20059;-58
2022/06/11 09:45:30;;;;;;;14.68;3.25;;;;;;;26.60;46.40;102117.25;5067803;28;20103;-58
2022/06/11 09:48:16;;;;;;;13.55;2.97;;;;;;;26.38;46.20;102119.72;5070981;28;20053;-60
2022/06/11 09:50:50;;;;;;;10.93;2.78;;;;;;;26.47;47.27;102125.91;5051678;28;20049;-58
2022/06/11 09:53:32;;;;;;;13.73;3.08;;;;;;;26.55;47.77;102128.56;5071829;28;20438;-48
2022/06/11 09:56:10;;;;;;;9.53;2.60;;;;;;;26.76;46.34;102125.28;5071567;28;20052;-53
2022/06/11 09:58:51;;;;;;;11.15;2.78;;;;;;;26.69;44.84;102128.84;5071570;28;20113;-53
2022/06/11 10:01:28;;;;;;;13.40;2.60;;;;;;;26.85;45.62;102118.00;5071006;28;20053;-51
2022/06/11 10:04:02;;;;;;;13.68;2.92;;;;;;;26.93;45.00;102126.03;5071573;28;20132;-53
2022/06/11 10:06:36;;;;;;;12.57;2.72;;;;;;;26.98;44.14;102120.09;5071298;28;20373;-53
2022/06/11 10:09:11;;;;;;;14.63;3.05;;;;;;;27.19;44.29;102124.00;5071184;28;20044;-58
2022/06/11 10:11:44;;;;;;;14.77;3.42;;;;;;;27.45;44.29;102129.94;5068492;28;20560;-58
2022/06/11 10:14:31;;;;;;;12.70;2.90;;;;;;;27.80;44.59;102126.75;5071092;28;20056;-58
2022/06/11 10:17:06;;;;;;;13.23;3.20;;;;;;;27.45;42.55;102124.53;5070989;28;20040;-58
2022/06/11 10:19:41;;;;;;;11.20;2.63;;;;;;;27.82;42.01;102130.13;5071402;28;20048;-52
2022/06/11 10:22:17;;;;;;;12.77;2.60;;;;;;;27.79;42.64;102125.91;5071452;28;20504;-52
2022/06/11 10:24:57;;;;;;;12.93;2.97;;;;;;;27.65;42.72;102127.56;5071150;28;20048;-52
2022/06/11 10:27:38;;;;;;;11.82;2.88;;;;;;;27.89;43.00;102127.50;5070862;28;20414;-58
2022/06/11 10:30:21;;;;;;;14.23;2.80;;;;;;;27.47;42.11;102136.00;5070752;28;20044;-57
2022/06/11 10:32:51;;;;;;;13.95;3.03;;;;;;;27.65;43.92;102135.66;5071275;28;20045;-57
2022/06/11 10:35:22;;;;;;;13.15;3.38;;;;;;;27.64;42.50;102133.16;5071403;28;20045;-54
2022/06/11 10:37:55;;;;;;;10.63;3.05;;;;;;;27.50;43.42;102134.81;5070937;28;20045;-52
2022/06/11 10:40:27;;;;;;;12.35;2.90;;;;;;;27.76;45.06;102131.69;5071460;28;20462;-54
2022/06/11 10:43:04;;;;;;;12.75;2.67;;;;;;;27.95;42.06;102132.16;5070942;28;20067;-58
2022/06/11 10:45:34;;;;;;;13.65;3.10;;;;;;;28.02;41.74;102130.47;5071288;28;20028;-53
2022/06/11 10:48:03;;;;;;;16.02;3.45;;;;;;;27.90;42.93;102135.44;5070534;28;20049;-55
2022/06/11 10:50:39;;;;;;;14.93;3.13;;;;;;;28.52;41.86;102136.13;5071123;28;20033;-55
2022/06/11 10:53:13;;;;;;;15.38;3.17;;;;;;;28.00;41.10;102146.00;5072689;28;20119;-53
2022/06/11 10:55:45;;;;;;;14.52;3.03;;;;;;;28.20;42.09;102137.38;5075130;28;20032;-59
2022/06/11 10:58:19;;;;;;;13.38;3.30;;;;;;;28.26;40.92;102128.50;5074386;28;20411;-58
2022/06/11 11:00:53;;;;;;;11.73;2.90;;;;;;;28.82;41.59;102120.72;5074492;28;20098;-59
2022/06/11 11:03:29;;;;;;;10.23;2.90;;;;;;;29.00;39.87;102132.97;5074606;28;20044;-58
2022/06/11 11:06:02;;;;;;;13.13;2.95;;;;;;;29.20;41.11;102116.91;5073698;28;20045;-59
2022/06/11 11:08:31;;;;;;;12.90;2.88;;;;;;;29.21;39.12;102134.03;5074241;28;20043;-59
2022/06/11 11:11:00;;;;;;;11.13;2.47;;;;;;;29.42;38.96;102127.78;5063081;28;20052;-59
2022/06/11 11:13:36;;;;;;;13.38;3.20;;;;;;;29.30;37.80;102124.75;5064636;28;20036;-54
2022/06/11 11:16:17;;;;;;;11.98;2.92;;;;;;;29.20;38.80;102127.75;5074426;28;20052;-59
2022/06/11 11:18:49;;;;;;;12.93;3.13;;;;;;;28.95;39.33;102116.47;5073893;28;20049;-59
2022/06/11 11:21:19;;;;;;;;;;;;;;;29.44;38.74;102120.31;5074919;28;20044;-57
2022/06/11 11:23:51;;;;;;;14.95;2.83;;;;;;;29.38;37.62;102112.94;5074147;28;20020;-58
2022/06/11 11:26:28;;;;;;;14.00;2.50;;;;;;;29.47;38.39;102111.78;5073847;28;20028;-58
2022/06/11 11:29:03;;;;;;;10.27;2.78;;;;;;;29.49;37.82;102121.41;5074113;28;20048;-59
2022/06/11 11:31:42;;;;;;;13.40;2.67;;;;;;;29.61;38.29;102118.97;5074058;28;20040;-59
2022/06/11 11:34:15;;;;;;;15.48;2.60;;;;;;;29.31;37.18;102121.00;5054169;28;20057;-54
2022/06/11 11:36:45;;;;;;;13.35;2.60;;;;;;;29.12;37.89;102119.75;5068334;28;20040;-58
2022/06/11 11:39:26;;;;;;;12.60;2.90;;;;;;;28.71;38.86;102120.34;5073738;28;20510;-54